createdAt,value
2017-05-20T00:00:05.765Z,11.43
2017-05-20T00:00:47.233Z,11.41
2017-05-20T00:01:27.741Z,11.45
2017-05-20T00:02:08.221Z,11.43
2017-05-20T00:02:48.721Z,11.43
2017-05-20T00:03:29.263Z,11.4
2017-05-20T00:04:10.058Z,11.52
2017-05-20T00:04:50.645Z,11.41
2017-05-20T00:05:31.105Z,11.48
2017-05-20T00:06:11.586Z,11.54
2017-05-20T00:06:52.177Z,11.51
2017-05-20T00:07:32.611Z,11.52
2017-05-20T00:08:13.105Z,11.47
2017-05-20T00:08:53.575Z,11.55
2017-05-20T00:09:34.055Z,11.57
2017-05-20T00:10:14.536Z,11.44
2017-05-20T00:10:55.016Z,11.43
2017-05-20T00:11:35.475Z,11.43
2017-05-20T00:12:15.934Z,11.44
2017-05-20T00:12:56.418Z,11.45
2017-05-20T00:13:36.941Z,11.45
2017-05-20T00:14:17.385Z,11.44
2017-05-20T00:14:57.912Z,11.5
2017-05-20T00:15:38.399Z,11.44
2017-05-20T00:16:18.852Z,11.44
2017-05-20T00:16:59.343Z,11.41
2017-05-20T00:17:39.876Z,11.41
2017-05-20T00:18:20.368Z,11.41
2017-05-20T00:19:00.833Z,11.43
2017-05-20T00:19:41.341Z,11.41
2017-05-20T00:20:21.836Z,11.35
2017-05-20T00:21:02.323Z,11.36
2017-05-20T00:21:42.781Z,11.4
2017-05-20T00:22:23.264Z,11.37
2017-05-20T00:23:03.770Z,11.4
2017-05-20T00:23:44.251Z,11.45
2017-05-20T00:24:24.750Z,11.27
2017-05-20T00:25:05.244Z,11.41
2017-05-20T00:25:45.712Z,11.37
2017-05-20T00:26:26.236Z,11.36
2017-05-20T00:27:06.728Z,11.43
2017-05-20T00:27:47.193Z,11.41
2017-05-20T00:28:27.679Z,11.35
2017-05-20T00:29:08.208Z,11.35
2017-05-20T00:29:48.647Z,11.27
2017-05-20T00:30:29.118Z,11.4
2017-05-20T00:31:09.586Z,11.4
2017-05-20T00:31:50.082Z,11.3
2017-05-20T00:32:30.530Z,11.27
2017-05-20T00:33:12.733Z,11.4
2017-05-20T00:33:54.032Z,11.27
2017-05-20T00:34:34.519Z,11.29
2017-05-20T00:35:14.988Z,11.33
2017-05-20T00:35:55.451Z,11.43
2017-05-20T00:36:36.015Z,11.33
2017-05-20T00:37:16.486Z,11.44
2017-05-20T00:37:56.946Z,11.45
2017-05-20T00:38:37.447Z,11.36
2017-05-20T00:39:17.884Z,-39.49
2017-05-20T00:39:58.396Z,-39.49
2017-05-20T00:40:38.871Z,-39.49
2017-05-20T00:41:19.330Z,-39.49
2017-05-20T00:41:59.901Z,-39.49
2017-05-20T00:42:40.352Z,-39.49
2017-05-20T00:43:20.810Z,-39.49
2017-05-20T00:44:01.303Z,-39.49
2017-05-20T00:44:41.802Z,-39.49
2017-05-20T00:45:22.287Z,-39.49
2017-05-20T00:46:02.778Z,-39.49
2017-05-20T00:46:43.296Z,11.43
2017-05-20T00:47:23.885Z,11.44
2017-05-20T00:48:04.380Z,11.51
2017-05-20T00:48:44.842Z,-39.49
2017-05-20T00:49:25.353Z,-39.49
2017-05-20T00:50:05.846Z,-39.49
2017-05-20T00:50:46.296Z,-39.49
2017-05-20T00:51:26.795Z,-39.49
2017-05-20T00:52:07.256Z,-39.49
2017-05-20T00:52:47.780Z,-39.49
2017-05-20T00:53:28.249Z,-39.49
2017-05-20T00:54:08.749Z,-39.49
2017-05-20T00:54:49.207Z,-39.49
2017-05-20T00:55:29.680Z,-39.49
2017-05-20T00:56:10.162Z,-39.49
2017-05-20T00:56:50.653Z,-39.49
2017-05-20T00:57:31.184Z,-39.49
2017-05-20T00:58:11.663Z,-39.49
2017-05-20T00:58:52.123Z,11.43
2017-05-20T00:59:32.642Z,-39.49
2017-05-20T01:00:13.055Z,11.47
2017-05-20T01:00:53.533Z,-39.49
2017-05-20T01:01:34.127Z,-39.49
2017-05-20T01:02:14.656Z,-39.49
2017-05-20T01:02:55.171Z,-39.49
2017-05-20T01:03:35.613Z,-39.49
2017-05-20T01:04:16.100Z,-39.49
2017-05-20T01:04:56.570Z,-39.49
2017-05-20T01:05:37.067Z,-39.49
2017-05-20T01:06:17.502Z,-39.49
2017-05-20T01:06:58.017Z,-39.49
2017-05-20T01:07:38.494Z,-39.49
2017-05-20T01:08:18.974Z,-39.49
2017-05-20T01:08:59.455Z,-39.49
2017-05-20T01:09:39.947Z,-39.49
2017-05-20T01:10:20.387Z,-39.49
2017-05-20T01:11:00.850Z,-39.49
2017-05-20T01:11:41.336Z,-39.49
2017-05-20T01:12:21.816Z,-39.49
2017-05-20T01:13:02.326Z,-39.49
2017-05-20T01:13:42.820Z,-39.49
2017-05-20T01:14:23.402Z,11.55
2017-05-20T01:15:03.976Z,11.57
2017-05-20T01:15:44.429Z,11.57
2017-05-20T01:16:24.931Z,11.6
2017-05-20T01:17:05.415Z,11.6
2017-05-20T01:17:45.888Z,-39.49
2017-05-20T01:18:26.372Z,-39.49
2017-05-20T01:19:06.880Z,11.6
2017-05-20T01:19:47.367Z,-39.49
2017-05-20T01:20:27.824Z,-39.49
2017-05-20T01:21:08.301Z,-39.49
2017-05-20T01:21:48.766Z,-39.49
2017-05-20T01:22:29.227Z,-39.49
2017-05-20T01:23:09.769Z,-39.49
2017-05-20T01:23:50.249Z,-39.49
2017-05-20T01:24:30.723Z,-39.49
2017-05-20T01:25:11.192Z,-39.49
2017-05-20T01:25:51.656Z,-39.49
2017-05-20T01:26:32.105Z,-39.49
2017-05-20T01:27:12.591Z,-39.49
2017-05-20T01:27:53.104Z,-39.49
2017-05-20T01:28:33.580Z,-39.49
2017-05-20T01:29:14.066Z,-39.49
2017-05-20T01:29:54.581Z,-39.49
2017-05-20T01:30:35.060Z,11.72
2017-05-20T01:31:15.604Z,-39.49
2017-05-20T01:31:56.050Z,11.59
2017-05-20T01:32:36.532Z,-39.49
2017-05-20T01:33:17.007Z,11.57
2017-05-20T01:33:57.475Z,-39.49
2017-05-20T01:34:37.966Z,-39.49
2017-05-20T01:35:18.705Z,-39.49
2017-05-20T01:35:59.210Z,-39.49
2017-05-20T01:36:39.708Z,-39.49
2017-05-20T01:37:20.126Z,11.5
2017-05-20T01:38:00.596Z,-39.49
2017-05-20T01:38:41.080Z,-39.49
2017-05-20T01:39:21.542Z,-39.49
2017-05-20T01:40:02.069Z,-39.49
2017-05-20T01:40:42.596Z,-39.49
2017-05-20T01:41:23.020Z,-39.49
2017-05-20T01:42:03.514Z,-39.49
2017-05-20T01:42:43.999Z,-39.49
2017-05-20T01:43:24.447Z,-39.49
2017-05-20T01:44:04.925Z,-39.49
2017-05-20T01:44:45.411Z,-39.49
2017-05-20T01:45:25.869Z,-39.49
2017-05-20T01:46:06.379Z,-39.49
2017-05-20T01:46:46.867Z,-39.49
2017-05-20T01:47:27.332Z,-39.49
2017-05-20T01:48:07.965Z,11.44
2017-05-20T01:48:48.439Z,-39.49
2017-05-20T01:49:31.603Z,-39.49
2017-05-20T01:50:12.095Z,-39.49
2017-05-20T01:50:52.571Z,-39.49
2017-05-20T01:51:33.127Z,-39.49
2017-05-20T01:52:13.591Z,-39.49
2017-05-20T01:52:54.091Z,-39.49
2017-05-20T01:53:34.538Z,-39.49
2017-05-20T01:54:15.037Z,-39.49
2017-05-20T01:54:55.561Z,-39.49
2017-05-20T01:55:36.011Z,-39.49
2017-05-20T01:56:16.491Z,-39.49
2017-05-20T01:56:56.964Z,-39.49
2017-05-20T01:57:37.429Z,-39.49
2017-05-20T01:58:17.955Z,-39.49
2017-05-20T01:58:58.418Z,-39.49
2017-05-20T01:59:38.911Z,-39.49
2017-05-20T02:00:19.402Z,-39.49
2017-05-20T02:00:59.887Z,-39.49
2017-05-20T02:01:40.367Z,-39.49
2017-05-20T02:02:22.412Z,11.23
2017-05-20T02:03:02.867Z,-39.49
2017-05-20T02:03:43.346Z,-39.49
2017-05-20T02:04:23.833Z,-39.49
2017-05-20T02:05:04.308Z,-39.49
2017-05-20T02:05:44.763Z,-39.49
2017-05-20T02:06:25.276Z,11.26
2017-05-20T02:07:05.730Z,-39.49
2017-05-20T02:07:46.207Z,-39.49
2017-05-20T02:08:26.681Z,-39.49
2017-05-20T02:09:07.199Z,11.18
2017-05-20T02:09:47.625Z,11.25
2017-05-20T02:10:28.165Z,-39.49
2017-05-20T02:11:08.644Z,11.3
2017-05-20T02:11:49.099Z,-39.49
2017-05-20T02:12:29.604Z,-39.49
2017-05-20T02:13:10.086Z,-39.49
2017-05-20T02:13:50.568Z,-39.49
2017-05-20T02:14:31.046Z,11.15
2017-05-20T02:15:11.545Z,-39.49
2017-05-20T02:15:52.049Z,-39.49
2017-05-20T02:16:32.578Z,-39.49
2017-05-20T02:17:13.090Z,-39.49
2017-05-20T02:17:53.575Z,-39.49
2017-05-20T02:18:34.068Z,-39.49
2017-05-20T02:19:14.525Z,-39.49
2017-05-20T02:19:55.008Z,-39.49
2017-05-20T02:20:35.489Z,-39.49
2017-05-20T02:21:15.949Z,-39.49
2017-05-20T02:21:56.438Z,11.15
2017-05-20T02:22:36.915Z,-39.49
2017-05-20T02:23:17.399Z,-39.49
2017-05-20T02:23:57.924Z,-39.49
2017-05-20T02:24:38.391Z,11.23
2017-05-20T02:25:18.867Z,-39.49
2017-05-20T02:25:59.370Z,11.22
2017-05-20T02:26:39.860Z,11.26
2017-05-20T02:27:20.307Z,11.19
2017-05-20T02:28:00.885Z,11.14
2017-05-20T02:28:41.412Z,11.23
2017-05-20T02:29:21.875Z,11.23
2017-05-20T02:30:02.340Z,11.23
2017-05-20T02:30:42.840Z,11.3
2017-05-20T02:31:23.282Z,11.18
2017-05-20T02:32:03.794Z,11.14
2017-05-20T02:32:44.303Z,11.18
2017-05-20T02:33:24.787Z,11.05
2017-05-20T02:34:05.285Z,11.05
2017-05-20T02:34:45.780Z,11.14
2017-05-20T02:35:26.245Z,11.08
2017-05-20T02:36:06.721Z,11.11
2017-05-20T02:36:47.183Z,11.05
2017-05-20T02:37:27.667Z,10.93
2017-05-20T02:38:08.163Z,11.02
2017-05-20T02:38:48.661Z,11
2017-05-20T02:39:29.167Z,11
2017-05-20T02:40:09.646Z,-39.49
2017-05-20T02:40:50.111Z,-39.49
2017-05-20T02:41:30.629Z,11.04
2017-05-20T02:42:11.105Z,10.94
2017-05-20T02:42:51.568Z,10.97
2017-05-20T02:43:32.048Z,10.93
2017-05-20T02:44:12.560Z,10.92
2017-05-20T02:44:53.049Z,10.99
2017-05-20T02:45:36.221Z,10.97
2017-05-20T02:46:16.706Z,10.96
2017-05-20T02:46:57.200Z,10.94
2017-05-20T02:47:37.707Z,10.87
2017-05-20T02:48:18.153Z,10.93
2017-05-20T02:48:58.625Z,10.89
2017-05-20T02:49:39.111Z,10.86
2017-05-20T02:50:19.568Z,10.9
2017-05-20T02:51:00.049Z,10.87
2017-05-20T02:51:40.552Z,10.96
2017-05-20T02:52:21.019Z,10.9
2017-05-20T02:53:01.489Z,10.93
2017-05-20T02:53:41.976Z,10.99
2017-05-20T02:54:22.425Z,10.96
2017-05-20T02:55:02.934Z,11
2017-05-20T02:55:43.422Z,-39.49
2017-05-20T02:56:23.888Z,-39.49
2017-05-20T02:57:04.360Z,-39.49
2017-05-20T02:57:44.833Z,-39.49
2017-05-20T02:58:25.315Z,-39.49
2017-05-20T02:59:05.826Z,-39.49
2017-05-20T02:59:46.332Z,-39.49
2017-05-20T03:00:26.788Z,-39.49
2017-05-20T03:01:09.036Z,-39.49
2017-05-20T03:01:49.503Z,-39.49
2017-05-20T03:02:30.008Z,-39.49
2017-05-20T03:03:10.474Z,-39.49
2017-05-20T03:03:50.971Z,-39.49
2017-05-20T03:04:31.462Z,-39.49
2017-05-20T03:05:12.807Z,-39.49
2017-05-20T03:05:53.291Z,-39.49
2017-05-20T03:06:33.767Z,-39.49
2017-05-20T03:07:14.300Z,-39.49
2017-05-20T03:07:54.749Z,-39.49
2017-05-20T03:08:35.227Z,-39.49
2017-05-20T03:09:15.702Z,-39.49
2017-05-20T03:09:56.248Z,-39.49
2017-05-20T03:10:36.685Z,-39.49
2017-05-20T03:11:17.193Z,-39.49
2017-05-20T03:11:57.684Z,10.94
2017-05-20T03:12:38.182Z,-39.49
2017-05-20T03:13:18.620Z,-39.49
2017-05-20T03:13:59.135Z,-39.49
2017-05-20T03:14:39.606Z,-39.49
2017-05-20T03:15:20.081Z,-39.49
2017-05-20T03:16:00.555Z,-39.49
2017-05-20T03:16:41.019Z,-39.49
2017-05-20T03:17:21.495Z,-39.49
2017-05-20T03:18:02.119Z,-39.49
2017-05-20T03:18:42.602Z,10.93
2017-05-20T03:19:23.062Z,-39.49
2017-05-20T03:20:03.534Z,-39.49
2017-05-20T03:20:44.041Z,-39.49
2017-05-20T03:21:24.540Z,-39.49
2017-05-20T03:22:05.041Z,-39.49
2017-05-20T03:22:45.514Z,-39.49
2017-05-20T03:23:25.998Z,-39.49
2017-05-20T03:24:06.485Z,-39.49
2017-05-20T03:24:46.962Z,-39.49
2017-05-20T03:25:27.442Z,11
2017-05-20T03:26:07.962Z,-39.49
2017-05-20T03:26:48.407Z,-39.49
2017-05-20T03:27:28.902Z,-39.49
2017-05-20T03:28:09.354Z,-39.49
2017-05-20T03:28:49.828Z,-39.49
2017-05-20T03:29:30.306Z,-39.49
2017-05-20T03:30:10.781Z,10.92
2017-05-20T03:30:51.301Z,-39.49
2017-05-20T03:31:31.764Z,-39.49
2017-05-20T03:32:12.273Z,-39.49
2017-05-20T03:32:52.717Z,-39.49
2017-05-20T03:33:33.182Z,-39.49
2017-05-20T03:34:13.675Z,-39.49
2017-05-20T03:34:54.129Z,-39.49
2017-05-20T03:35:34.624Z,-39.49
2017-05-20T03:36:15.089Z,10.87
2017-05-20T03:36:55.594Z,-39.49
2017-05-20T03:37:36.023Z,-39.49
2017-05-20T03:38:16.870Z,-39.49
2017-05-20T03:38:57.361Z,-39.49
2017-05-20T03:39:37.857Z,-39.49
2017-05-20T03:40:18.355Z,-39.49
2017-05-20T03:40:58.835Z,-39.49
2017-05-20T03:41:39.329Z,-39.49
2017-05-20T03:42:19.824Z,-39.49
2017-05-20T03:43:00.292Z,-39.49
2017-05-20T03:43:40.758Z,-39.49
2017-05-20T03:44:21.246Z,-39.49
2017-05-20T03:45:01.689Z,-39.49
2017-05-20T03:45:42.184Z,-39.49
2017-05-20T03:46:22.640Z,-39.49
2017-05-20T03:47:03.116Z,-39.49
2017-05-20T03:47:43.623Z,-39.49
2017-05-20T03:48:24.100Z,-39.49
2017-05-20T03:49:04.589Z,-39.49
2017-05-20T03:49:45.059Z,-39.49
2017-05-20T03:50:25.588Z,-39.49
2017-05-20T03:51:06.120Z,-39.49
2017-05-20T03:51:46.590Z,-39.49
2017-05-20T03:52:27.073Z,-39.49
2017-05-20T03:53:07.570Z,-39.49
2017-05-20T03:53:48.093Z,-39.49
2017-05-20T03:54:28.586Z,-39.49
2017-05-20T03:55:09.079Z,-39.49
2017-05-20T03:55:49.553Z,-39.49
2017-05-20T03:56:30.068Z,-39.49
2017-05-20T03:57:10.535Z,-39.49
2017-05-20T03:57:51.038Z,-39.49
2017-05-20T03:58:31.550Z,-39.49
2017-05-20T03:59:11.981Z,-39.49
2017-05-20T03:59:52.474Z,-39.49
2017-05-20T04:00:32.958Z,-39.49
2017-05-20T04:01:13.468Z,-39.49
2017-05-20T04:01:53.948Z,-39.49
2017-05-20T04:02:34.396Z,-39.49
2017-05-20T04:03:14.935Z,-39.49
2017-05-20T04:03:55.424Z,-39.49
2017-05-20T04:04:35.874Z,-39.49
2017-05-20T04:05:16.387Z,-39.49
2017-05-20T04:05:56.877Z,-39.49
2017-05-20T04:06:37.362Z,-39.49
2017-05-20T04:07:17.902Z,-39.49
2017-05-20T04:07:58.379Z,-39.49
2017-05-20T04:08:38.819Z,-39.49
2017-05-20T04:09:19.315Z,-39.49
2017-05-20T04:09:59.796Z,-39.49
2017-05-20T04:10:40.321Z,-39.49
2017-05-20T04:11:20.900Z,-39.49
2017-05-20T04:12:01.383Z,-39.49
2017-05-20T04:12:43.056Z,-39.49
2017-05-20T04:13:23.548Z,-39.49
2017-05-20T04:14:04.061Z,-39.49
2017-05-20T04:14:44.486Z,-39.49
2017-05-20T04:15:24.962Z,-39.49
2017-05-20T04:16:05.435Z,-39.49
2017-05-20T04:16:45.983Z,-39.49
2017-05-20T04:17:26.490Z,-39.49
2017-05-20T04:18:09.800Z,-39.49
2017-05-20T04:18:50.286Z,-39.49
2017-05-20T04:19:30.770Z,-39.49
2017-05-20T04:20:11.256Z,-39.49
2017-05-20T04:20:51.724Z,-39.49
2017-05-20T04:21:32.226Z,-39.49
2017-05-20T04:22:12.741Z,-39.49
2017-05-20T04:22:53.217Z,-39.49
2017-05-20T04:23:33.708Z,-39.49
2017-05-20T04:24:14.167Z,-39.49
2017-05-20T04:24:54.649Z,11.04
2017-05-20T04:25:35.090Z,11.04
2017-05-20T04:26:15.570Z,11.11
2017-05-20T04:26:56.072Z,11.12
2017-05-20T04:27:38.310Z,11.14
2017-05-20T04:28:18.785Z,-39.49
2017-05-20T04:28:59.267Z,-39.49
2017-05-20T04:29:41.676Z,-39.49
2017-05-20T04:30:22.214Z,-39.49
2017-05-20T04:31:02.676Z,-39.49
2017-05-20T04:31:43.147Z,-39.49
2017-05-20T04:32:23.636Z,-39.49
2017-05-20T04:33:04.097Z,11.19
2017-05-20T04:33:44.575Z,11.3
2017-05-20T04:34:25.122Z,11.35
2017-05-20T04:35:05.608Z,11.33
2017-05-20T04:35:46.100Z,11.4
2017-05-20T04:36:28.281Z,-39.49
2017-05-20T04:37:08.673Z,-39.49
2017-05-20T04:37:49.146Z,-39.49
2017-05-20T04:38:29.670Z,-39.49
2017-05-20T04:39:12.733Z,-39.49
2017-05-20T04:39:53.183Z,-39.49
2017-05-20T04:40:33.665Z,-39.49
2017-05-20T04:41:14.165Z,-39.49
2017-05-20T04:41:54.654Z,-39.49
2017-05-20T04:42:37.820Z,-39.49
2017-05-20T04:43:18.297Z,-39.49
2017-05-20T04:43:58.757Z,-39.49
2017-05-20T04:44:40.044Z,-39.49
2017-05-20T04:45:20.523Z,-39.49
2017-05-20T04:46:00.991Z,-39.49
2017-05-20T04:46:41.463Z,-39.49
2017-05-20T04:47:21.947Z,-39.49
2017-05-20T04:48:02.431Z,-39.49
2017-05-20T04:48:42.925Z,-39.49
2017-05-20T04:49:23.415Z,-39.49
2017-05-20T04:50:03.863Z,-39.49
2017-05-20T04:50:47.229Z,-39.49
2017-05-20T04:51:27.722Z,-39.49
2017-05-20T04:52:08.200Z,-39.49
2017-05-20T04:52:50.249Z,-39.49
2017-05-20T04:53:30.753Z,-39.49
2017-05-20T04:54:11.249Z,-39.49
2017-05-20T04:54:51.681Z,-39.49
2017-05-20T04:55:35.040Z,-39.49
2017-05-20T04:56:15.473Z,-39.49
2017-05-20T04:56:55.965Z,-39.49
2017-05-20T04:57:36.442Z,-39.49
2017-05-20T04:58:18.868Z,-39.49
2017-05-20T04:58:59.344Z,-39.49
2017-05-20T04:59:39.816Z,-39.49
2017-05-20T05:00:20.278Z,-39.49
2017-05-20T05:01:00.742Z,-39.49
2017-05-20T05:01:41.246Z,-39.49
2017-05-20T05:02:21.766Z,-39.49
2017-05-20T05:03:02.232Z,-39.49
2017-05-20T05:03:42.681Z,-39.49
2017-05-20T05:04:23.178Z,-39.49
2017-05-20T05:05:06.226Z,-39.49
2017-05-20T05:05:46.757Z,-39.49
2017-05-20T05:06:27.217Z,-39.49
2017-05-20T05:07:07.681Z,-39.49
2017-05-20T05:07:48.221Z,-39.49
2017-05-20T05:08:28.668Z,-39.49
2017-05-20T05:09:09.199Z,-39.49
2017-05-20T05:09:49.659Z,-39.49
2017-05-20T05:10:30.160Z,-39.49
2017-05-20T05:11:10.624Z,-39.49
2017-05-20T05:11:51.130Z,-39.49
2017-05-20T05:12:34.429Z,-39.49
2017-05-20T05:13:14.900Z,-39.49
2017-05-20T05:13:56.364Z,-39.49
2017-05-20T05:14:36.857Z,-39.49
2017-05-20T05:15:17.320Z,-39.49
2017-05-20T05:15:57.785Z,-39.49
2017-05-20T05:16:38.260Z,-39.49
2017-05-20T05:17:18.725Z,-39.49
2017-05-20T05:17:59.235Z,-39.49
2017-05-20T05:18:39.705Z,-39.49
2017-05-20T05:19:20.151Z,-39.49
2017-05-20T05:20:00.659Z,-39.49
2017-05-20T05:20:41.109Z,11.48
2017-05-20T05:21:21.576Z,11.55
2017-05-20T05:22:02.279Z,11.52
2017-05-20T05:22:42.732Z,11.69
2017-05-20T05:23:23.254Z,11.68
2017-05-20T05:24:03.715Z,11.62
2017-05-20T05:24:44.225Z,11.62
2017-05-20T05:25:24.687Z,11.59
2017-05-20T05:26:05.183Z,11.52
2017-05-20T05:26:45.688Z,11.63
2017-05-20T05:27:26.120Z,11.65
2017-05-20T05:28:06.607Z,11.52
2017-05-20T05:28:47.068Z,11.47
2017-05-20T05:29:27.566Z,11.57
2017-05-20T05:30:08.095Z,11.48
2017-05-20T05:30:48.618Z,11.55
2017-05-20T05:31:29.081Z,11.47
2017-05-20T05:32:09.584Z,11.54
2017-05-20T05:32:50.035Z,11.59
2017-05-20T05:33:30.496Z,-39.49
2017-05-20T05:34:12.814Z,-39.49
2017-05-20T05:34:53.333Z,-39.49
2017-05-20T05:35:33.785Z,-39.49
2017-05-20T05:36:14.268Z,-39.49
2017-05-20T05:36:54.736Z,-39.49
2017-05-20T05:37:35.235Z,-39.49
2017-05-20T05:38:15.698Z,-39.49
2017-05-20T05:38:56.175Z,-39.49
2017-05-20T05:39:36.633Z,-39.49
2017-05-20T05:40:17.124Z,-39.49
2017-05-20T05:40:57.606Z,-39.49
2017-05-20T05:41:38.097Z,-39.49
2017-05-20T05:42:18.600Z,-39.49
2017-05-20T05:42:59.094Z,-39.49
2017-05-20T05:43:39.545Z,-39.49
2017-05-20T05:44:20.979Z,-39.49
2017-05-20T05:45:01.477Z,-39.49
2017-05-20T05:45:41.976Z,-39.49
2017-05-20T05:46:22.435Z,-39.49
2017-05-20T05:47:02.959Z,-39.49
2017-05-20T05:47:43.419Z,-39.49
2017-05-20T05:48:23.951Z,-39.49
2017-05-20T05:49:04.433Z,-39.49
2017-05-20T05:49:44.924Z,-39.49
2017-05-20T05:50:25.422Z,-39.49
2017-05-20T05:51:05.889Z,-39.49
2017-05-20T05:51:46.386Z,-39.49
2017-05-20T05:52:26.856Z,-39.49
2017-05-20T05:53:07.322Z,-39.49
2017-05-20T05:53:47.789Z,-39.49
2017-05-20T05:54:28.315Z,-39.49
2017-05-20T05:55:08.765Z,-39.49
2017-05-20T05:55:49.248Z,-39.49
2017-05-20T05:56:29.727Z,-39.49
2017-05-20T05:57:10.289Z,-39.49
2017-05-20T05:57:50.764Z,-39.49
2017-05-20T05:58:31.237Z,-39.49
2017-05-20T05:59:11.760Z,-39.49
2017-05-20T05:59:52.211Z,-39.49
2017-05-20T06:00:32.673Z,-39.49
2017-05-20T06:01:13.236Z,-39.49
2017-05-20T06:01:53.706Z,-39.49
2017-05-20T06:02:34.183Z,-39.49
2017-05-20T06:03:14.700Z,-39.49
2017-05-20T06:03:55.161Z,-39.49
2017-05-20T06:04:35.644Z,-39.49
2017-05-20T06:05:16.143Z,-39.49
2017-05-20T06:05:56.618Z,-39.49
2017-05-20T06:06:37.109Z,-39.49
2017-05-20T06:07:17.567Z,-39.49
2017-05-20T06:07:58.053Z,-39.49
2017-05-20T06:08:38.513Z,-39.49
2017-05-20T06:09:18.967Z,-39.49
2017-05-20T06:09:59.452Z,-39.49
2017-05-20T06:10:39.940Z,-39.49
2017-05-20T06:11:20.448Z,-39.49
2017-05-20T06:12:00.937Z,-39.49
2017-05-20T06:12:41.416Z,-39.49
2017-05-20T06:13:21.880Z,-39.49
2017-05-20T06:14:02.464Z,-39.49
2017-05-20T06:14:42.899Z,-39.49
2017-05-20T06:15:23.338Z,-39.49
2017-05-20T06:16:03.833Z,-39.49
2017-05-20T06:16:44.285Z,-39.49
2017-05-20T06:17:25.093Z,-39.49
2017-05-20T06:18:05.567Z,-39.49
2017-05-20T06:18:46.032Z,-39.49
2017-05-20T06:19:26.522Z,-39.49
2017-05-20T06:20:06.974Z,-39.49
2017-05-20T06:20:47.462Z,-39.49
2017-05-20T06:21:27.958Z,-39.49
2017-05-20T06:22:08.522Z,-39.49
2017-05-20T06:22:49.013Z,-39.49
2017-05-20T06:23:29.559Z,-39.49
2017-05-20T06:24:10.014Z,-39.49
2017-05-20T06:24:50.512Z,-39.49
2017-05-20T06:25:30.990Z,-39.49
2017-05-20T06:26:11.454Z,-39.49
2017-05-20T06:26:51.972Z,-39.49
2017-05-20T06:27:32.425Z,-39.49
2017-05-20T06:28:12.884Z,-39.49
2017-05-20T06:28:53.383Z,-39.49
2017-05-20T06:29:33.831Z,-39.49
2017-05-20T06:30:14.363Z,-39.49
2017-05-20T06:30:54.861Z,-39.49
2017-05-20T06:31:35.327Z,-39.49
2017-05-20T06:32:15.796Z,-39.49
2017-05-20T06:32:56.299Z,-39.49
2017-05-20T06:33:36.811Z,-39.49
2017-05-20T06:34:17.346Z,-39.49
2017-05-20T06:34:57.775Z,-39.49
2017-05-20T06:35:38.351Z,-39.49
2017-05-20T06:36:18.826Z,-39.49
2017-05-20T06:36:59.302Z,-39.49
2017-05-20T06:37:39.778Z,-39.49
2017-05-20T06:38:20.246Z,-39.49
2017-05-20T06:39:03.237Z,-39.49
2017-05-20T06:39:43.717Z,-39.49
2017-05-20T06:40:24.203Z,-39.49
2017-05-20T06:41:04.711Z,-39.49
2017-05-20T06:41:45.181Z,-39.49
2017-05-20T06:42:25.672Z,-39.49
2017-05-20T06:43:06.168Z,-39.49
2017-05-20T06:43:46.636Z,-39.49
2017-05-20T06:44:27.121Z,-39.49
2017-05-20T06:45:07.604Z,-39.49
2017-05-20T06:45:48.156Z,-39.49
2017-05-20T06:46:28.540Z,-39.49
2017-05-20T06:47:09.167Z,-39.49
2017-05-20T06:47:49.516Z,-39.49
2017-05-20T06:48:30.062Z,-39.49
2017-05-20T06:49:10.551Z,-39.49
2017-05-20T06:49:51.036Z,-39.49
2017-05-20T06:50:31.495Z,-39.49
2017-05-20T06:51:11.996Z,-39.49
2017-05-20T06:51:52.443Z,-39.49
2017-05-20T06:52:33.162Z,-39.49
2017-05-20T06:53:13.669Z,-39.49
2017-05-20T06:53:54.146Z,-39.49
2017-05-20T06:54:34.618Z,-39.49
2017-05-20T06:55:17.921Z,-39.49
2017-05-20T06:55:59.319Z,-39.49
2017-05-20T06:56:39.818Z,-39.49
2017-05-20T06:57:20.302Z,-39.49
2017-05-20T06:58:00.757Z,-39.49
2017-05-20T06:58:41.227Z,-39.49
2017-05-20T06:59:21.700Z,-39.49
2017-05-20T07:00:02.270Z,-39.49
2017-05-20T07:00:42.739Z,-39.49
2017-05-20T07:01:23.292Z,-39.49
2017-05-20T07:02:03.694Z,-39.49
2017-05-20T07:02:44.147Z,-39.49
2017-05-20T07:03:24.617Z,-39.49
2017-05-20T07:04:05.129Z,-39.49
2017-05-20T07:04:45.561Z,-39.49
2017-05-20T07:05:26.033Z,-39.49
2017-05-20T07:06:06.530Z,-39.49
2017-05-20T07:06:47.024Z,-39.49
2017-05-20T07:07:27.532Z,-39.49
2017-05-20T07:08:08.067Z,-39.49
2017-05-20T07:08:48.603Z,-39.49
2017-05-20T07:09:29.073Z,-39.49
2017-05-20T07:10:09.529Z,-39.49
2017-05-20T07:10:50.022Z,-39.49
2017-05-20T07:11:30.489Z,-39.49
2017-05-20T07:12:11.157Z,-39.49
2017-05-20T07:12:51.616Z,-39.49
2017-05-20T07:13:32.124Z,-39.49
2017-05-20T07:14:12.594Z,-39.49
2017-05-20T07:14:53.085Z,-39.49
2017-05-20T07:15:37.327Z,-39.49
2017-05-20T07:16:17.793Z,-39.49
2017-05-20T07:16:58.300Z,-39.49
2017-05-20T07:17:38.803Z,-39.49
2017-05-20T07:18:19.310Z,-39.49
2017-05-20T07:18:59.753Z,-39.49
2017-05-20T07:19:40.232Z,-39.49
2017-05-20T07:20:20.705Z,-39.49
2017-05-20T07:21:01.200Z,-39.49
2017-05-20T07:21:41.693Z,-39.49
2017-05-20T07:22:22.155Z,-39.49
2017-05-20T07:23:02.630Z,-39.49
2017-05-20T07:23:43.092Z,-39.49
2017-05-20T07:24:23.630Z,-39.49
2017-05-20T07:25:04.117Z,-39.49
2017-05-20T07:25:44.679Z,-39.49
2017-05-20T07:26:25.188Z,-39.49
2017-05-20T07:27:05.677Z,-39.49
2017-05-20T07:27:46.113Z,-39.49
2017-05-20T07:28:26.615Z,-39.49
2017-05-20T07:29:13.858Z,-39.49
2017-05-20T07:29:54.324Z,-39.49
2017-05-20T07:30:34.803Z,-39.49
2017-05-20T07:31:15.275Z,-39.49
2017-05-20T07:31:55.738Z,-39.49
2017-05-20T07:32:36.220Z,-39.49
2017-05-20T07:33:16.691Z,-39.49
2017-05-20T07:33:57.167Z,-39.49
2017-05-20T07:34:39.273Z,-39.49
2017-05-20T07:35:20.450Z,-39.49
2017-05-20T07:36:00.963Z,-39.49
2017-05-20T07:36:41.465Z,-39.49
2017-05-20T07:37:21.954Z,-39.49
2017-05-20T07:38:02.411Z,-39.49
2017-05-20T07:38:42.898Z,-39.49
2017-05-20T07:39:23.391Z,-39.49
2017-05-20T07:40:03.854Z,-39.49
2017-05-20T07:40:44.325Z,-39.49
2017-05-20T07:41:24.815Z,-39.49
2017-05-20T07:42:05.304Z,-39.49
2017-05-20T07:42:45.749Z,-39.49
2017-05-20T07:43:26.274Z,-39.49
2017-05-20T07:44:06.806Z,-39.49
2017-05-20T07:44:47.230Z,-39.49
2017-05-20T07:45:30.299Z,-39.49
2017-05-20T07:46:10.802Z,-39.49
2017-05-20T07:46:51.248Z,-39.49
2017-05-20T07:47:31.774Z,-39.49
2017-05-20T07:48:12.249Z,-39.49
2017-05-20T07:48:54.309Z,-39.49
2017-05-20T07:49:34.814Z,-39.49
2017-05-20T07:50:15.329Z,-39.49
2017-05-20T07:50:55.782Z,-39.49
2017-05-20T07:51:36.267Z,-39.49
2017-05-20T07:52:16.788Z,-39.49
2017-05-20T07:52:57.252Z,-39.49
2017-05-20T07:53:37.704Z,-39.49
2017-05-20T07:54:18.226Z,-39.49
2017-05-20T07:54:58.676Z,-39.49
2017-05-20T07:55:39.147Z,-39.49
2017-05-20T07:56:19.635Z,-39.49
2017-05-20T07:57:00.089Z,-39.49
2017-05-20T07:57:40.579Z,-39.49
2017-05-20T07:58:23.950Z,-39.49
2017-05-20T07:59:04.469Z,-39.49
2017-05-20T07:59:44.935Z,-39.49
2017-05-20T08:00:25.451Z,-39.49
2017-05-20T08:01:05.916Z,-39.49
2017-05-20T08:01:48.032Z,-39.49
2017-05-20T08:02:28.565Z,-39.49
2017-05-20T08:03:09.427Z,-39.49
2017-05-20T08:03:49.909Z,-39.49
2017-05-20T08:04:30.491Z,-39.49
2017-05-20T08:05:10.972Z,-39.49
2017-05-20T08:05:51.448Z,-39.49
2017-05-20T08:06:31.952Z,-39.49
2017-05-20T08:07:12.408Z,-39.49
2017-05-20T08:07:52.895Z,-39.49
2017-05-20T08:08:33.403Z,-39.49
2017-05-20T08:09:13.881Z,-39.49
2017-05-20T08:09:55.944Z,-39.49
2017-05-20T08:10:36.453Z,-39.49
2017-05-20T08:11:16.907Z,-39.49
2017-05-20T08:11:57.370Z,-39.49
2017-05-20T08:12:37.874Z,-39.49
2017-05-20T08:13:18.395Z,-39.49
2017-05-20T08:13:58.863Z,-39.49
2017-05-20T08:14:39.351Z,-39.49
2017-05-20T08:15:21.361Z,-39.49
2017-05-20T08:16:01.845Z,-39.49
2017-05-20T08:16:42.342Z,-39.49
2017-05-20T08:17:22.861Z,-39.49
2017-05-20T08:18:03.380Z,-39.49
2017-05-20T08:18:44.521Z,-39.49
2017-05-20T08:19:27.648Z,-39.49
2017-05-20T08:20:08.140Z,-39.49
2017-05-20T08:20:48.615Z,-39.49
2017-05-20T08:21:29.131Z,-39.49
2017-05-20T08:22:11.382Z,-39.49
2017-05-20T08:22:52.540Z,-39.49
2017-05-20T08:23:33.028Z,-39.49
2017-05-20T08:24:13.551Z,-39.49
2017-05-20T08:24:54.059Z,-39.49
2017-05-20T08:25:37.358Z,-39.49
2017-05-20T08:26:17.865Z,-39.49
2017-05-20T08:26:58.395Z,-39.49
2017-05-20T08:27:38.886Z,-39.49
2017-05-20T08:28:19.315Z,-39.49
2017-05-20T08:28:59.774Z,-39.49
2017-05-20T08:29:42.214Z,-39.49
2017-05-20T08:30:22.666Z,-39.49